sensor_id;sensor_type;location;lat;lon;timestamp;pressure;altitude;pressure_sealevel;temperature
66403;BMP180;53212;52.112;5.144;2023-10-19T00:00:41;99230.20;;;10.60
66403;BMP180;53212;52.112;5.144;2023-10-19T00:03:11;99230.40;;;10.62
66403;BMP180;53212;52.112;5.144;2023-10-19T00:05:38;99225.40;;;10.68
66403;BMP180;53212;52.112;5.144;2023-10-19T00:08:06;99215.20;;;10.70
66403;BMP180;53212;52.112;5.144;2023-10-19T00:10:54;99209.20;;;10.70
66403;BMP180;53212;52.112;5.144;2023-10-19T00:13:36;99220.00;;;10.70
66403;BMP180;53212;52.112;5.144;2023-10-19T00:16:07;99223.40;;;10.70
66403;BMP180;53212;52.112;5.144;2023-10-19T00:18:49;99210.80;;;10.80
66403;BMP180;53212;52.112;5.144;2023-10-19T00:21:16;99202.60;;;10.80
66403;BMP180;53212;52.112;5.144;2023-10-19T00:23:55;99198.40;;;10.80
66403;BMP180;53212;52.112;5.144;2023-10-19T00:26:26;99197.20;;;10.80
66403;BMP180;53212;52.112;5.144;2023-10-19T00:28:52;99201.20;;;10.88
66403;BMP180;53212;52.112;5.144;2023-10-19T00:31:19;99201.20;;;10.90
66403;BMP180;53212;52.112;5.144;2023-10-19T00:33:48;99215.20;;;10.90
66403;BMP180;53212;52.112;5.144;2023-10-19T00:36:17;99199.20;;;11.00
66403;BMP180;53212;52.112;5.144;2023-10-19T00:38:45;99183.20;;;11.00
66403;BMP180;53212;52.112;5.144;2023-10-19T00:41:14;99203.80;;;11.00
66403;BMP180;53212;52.112;5.144;2023-10-19T00:43:45;99218.20;;;11.00
66403;BMP180;53212;52.112;5.144;2023-10-19T00:46:20;99190.00;;;11.00
66403;BMP180;53212;52.112;5.144;2023-10-19T00:48:54;99198.40;;;11.10
66403;BMP180;53212;52.112;5.144;2023-10-19T00:51:24;99206.40;;;11.10
66403;BMP180;53212;52.112;5.144;2023-10-19T00:54:00;99201.20;;;11.10
66403;BMP180;53212;52.112;5.144;2023-10-19T00:56:31;99193.00;;;11.12
66403;BMP180;53212;52.112;5.144;2023-10-19T00:59:00;99185.60;;;11.18
66403;BMP180;53212;52.112;5.144;2023-10-19T01:01:38;99193.20;;;11.20
66403;BMP180;53212;52.112;5.144;2023-10-19T01:04:11;99199.00;;;11.20
66403;BMP180;53212;52.112;5.144;2023-10-19T01:06:44;99197.00;;;11.20
66403;BMP180;53212;52.112;5.144;2023-10-19T01:09:23;99185.60;;;11.30
66403;BMP180;53212;52.112;5.144;2023-10-19T01:11:52;99179.60;;;11.30
66403;BMP180;53212;52.112;5.144;2023-10-19T01:14:21;99182.00;;;11.30
66403;BMP180;53212;52.112;5.144;2023-10-19T01:16:48;99194.40;;;11.30
66403;BMP180;53212;52.112;5.144;2023-10-19T01:19:15;99190.00;;;11.34
66403;BMP180;53212;52.112;5.144;2023-10-19T01:21:44;99183.00;;;11.40
66403;BMP180;53212;52.112;5.144;2023-10-19T01:24:21;99185.60;;;11.40
66403;BMP180;53212;52.112;5.144;2023-10-19T01:27:05;99185.00;;;11.40
66403;BMP180;53212;52.112;5.144;2023-10-19T01:29:34;99182.60;;;11.40
66403;BMP180;53212;52.112;5.144;2023-10-19T01:32:00;99176.60;;;11.42
66403;BMP180;53212;52.112;5.144;2023-10-19T01:34:34;99184.60;;;11.50
66403;BMP180;53212;52.112;5.144;2023-10-19T01:37:00;99179.40;;;11.50
66403;BMP180;53212;52.112;5.144;2023-10-19T01:39:35;99178.60;;;11.54
66403;BMP180;53212;52.112;5.144;2023-10-19T01:42:02;99177.40;;;11.60
66403;BMP180;53212;52.112;5.144;2023-10-19T01:44:33;99181.20;;;11.60
66403;BMP180;53212;52.112;5.144;2023-10-19T01:47:01;99174.40;;;11.68
66403;BMP180;53212;52.112;5.144;2023-10-19T01:49:27;99175.00;;;11.70
66403;BMP180;53212;52.112;5.144;2023-10-19T01:51:54;99167.80;;;11.70
66403;BMP180;53212;52.112;5.144;2023-10-19T01:54:20;99166.60;;;11.76
66403;BMP180;53212;52.112;5.144;2023-10-19T01:56:54;99176.00;;;11.80
66403;BMP180;53212;52.112;5.144;2023-10-19T01:59:26;99175.80;;;11.80
66403;BMP180;53212;52.112;5.144;2023-10-19T02:01:56;99167.60;;;11.90
66403;BMP180;53212;52.112;5.144;2023-10-19T02:04:23;99167.60;;;11.90
66403;BMP180;53212;52.112;5.144;2023-10-19T02:06:49;99170.20;;;12.00
66403;BMP180;53212;52.112;5.144;2023-10-19T02:09:18;99166.60;;;12.00
66403;BMP180;53212;52.112;5.144;2023-10-19T02:11:56;99164.00;;;12.08
66403;BMP180;53212;52.112;5.144;2023-10-19T02:14:23;99167.80;;;12.10
66403;BMP180;53212;52.112;5.144;2023-10-19T02:16:55;99168.40;;;12.20
66403;BMP180;53212;52.112;5.144;2023-10-19T02:19:23;99171.40;;;12.20
66403;BMP180;53212;52.112;5.144;2023-10-19T02:22:01;99173.60;;;12.30
66403;BMP180;53212;52.112;5.144;2023-10-19T02:24:33;99173.00;;;12.30
66403;BMP180;53212;52.112;5.144;2023-10-19T02:26:58;99170.60;;;12.40
66403;BMP180;53212;52.112;5.144;2023-10-19T02:29:25;99171.20;;;12.40
66403;BMP180;53212;52.112;5.144;2023-10-19T02:31:51;99171.60;;;12.50
66403;BMP180;53212;52.112;5.144;2023-10-19T02:34:18;99168.40;;;12.50
66403;BMP180;53212;52.112;5.144;2023-10-19T02:36:45;99165.00;;;12.60
66403;BMP180;53212;52.112;5.144;2023-10-19T02:39:13;99162.20;;;12.60
66403;BMP180;53212;52.112;5.144;2023-10-19T02:41:47;99156.80;;;12.70
66403;BMP180;53212;52.112;5.144;2023-10-19T02:44:18;99154.60;;;12.70
66403;BMP180;53212;52.112;5.144;2023-10-19T02:46:51;99156.80;;;12.70
66403;BMP180;53212;52.112;5.144;2023-10-19T02:49:19;99151.40;;;12.80
66403;BMP180;53212;52.112;5.144;2023-10-19T02:51:46;99155.00;;;12.80
66403;BMP180;53212;52.112;5.144;2023-10-19T02:54:14;99151.20;;;12.80
66403;BMP180;53212;52.112;5.144;2023-10-19T02:56:48;99145.20;;;12.90
66403;BMP180;53212;52.112;5.144;2023-10-19T02:59:15;99144.20;;;12.90
66403;BMP180;53212;52.112;5.144;2023-10-19T03:01:42;99146.60;;;12.90
66403;BMP180;53212;52.112;5.144;2023-10-19T03:04:11;99144.20;;;12.90
66403;BMP180;53212;52.112;5.144;2023-10-19T03:06:40;99150.60;;;12.90
66403;BMP180;53212;52.112;5.144;2023-10-19T03:09:08;99147.00;;;12.98
66403;BMP180;53212;52.112;5.144;2023-10-19T03:11:56;99143.40;;;13.00
66403;BMP180;53212;52.112;5.144;2023-10-19T03:14:28;99140.80;;;13.00
66403;BMP180;53212;52.112;5.144;2023-10-19T03:16:54;99143.20;;;13.06
66403;BMP180;53212;52.112;5.144;2023-10-19T03:19:23;99137.00;;;13.10
66403;BMP180;53212;52.112;5.144;2023-10-19T03:21:50;99132.00;;;13.10
66403;BMP180;53212;52.112;5.144;2023-10-19T03:24:17;99128.60;;;13.10
66403;BMP180;53212;52.112;5.144;2023-10-19T03:26:50;99133.40;;;13.10
66403;BMP180;53212;52.112;5.144;2023-10-19T03:29:16;99131.60;;;13.10
66403;BMP180;53212;52.112;5.144;2023-10-19T03:31:45;99130.00;;;13.20
66403;BMP180;53212;52.112;5.144;2023-10-19T03:34:12;99127.00;;;13.20
66403;BMP180;53212;52.112;5.144;2023-10-19T03:36:39;99125.80;;;13.20
66403;BMP180;53212;52.112;5.144;2023-10-19T03:39:05;99125.40;;;13.24
66403;BMP180;53212;52.112;5.144;2023-10-19T03:41:44;99122.20;;;13.30
66403;BMP180;53212;52.112;5.144;2023-10-19T03:44:14;99120.40;;;13.30
66403;BMP180;53212;52.112;5.144;2023-10-19T03:47:02;99117.60;;;13.30
66403;BMP180;53212;52.112;5.144;2023-10-19T03:49:30;99117.40;;;13.30
66403;BMP180;53212;52.112;5.144;2023-10-19T03:52:01;99117.60;;;13.30
66403;BMP180;53212;52.112;5.144;2023-10-19T03:54:39;99118.20;;;13.30
66403;BMP180;53212;52.112;5.144;2023-10-19T03:57:06;99117.00;;;13.38
66403;BMP180;53212;52.112;5.144;2023-10-19T03:59:40;99116.20;;;13.40
66403;BMP180;53212;52.112;5.144;2023-10-19T04:02:07;99118.20;;;13.40
66403;BMP180;53212;52.112;5.144;2023-10-19T04:04:41;99118.20;;;13.40
66403;BMP180;53212;52.112;5.144;2023-10-19T04:07:13;99116.00;;;13.40
66403;BMP180;53212;52.112;5.144;2023-10-19T04:09:55;99118.20;;;13.38
66403;BMP180;53212;52.112;5.144;2023-10-19T04:12:37;99117.20;;;13.30
66403;BMP180;53212;52.112;5.144;2023-10-19T04:15:07;99107.00;;;13.30
66403;BMP180;53212;52.112;5.144;2023-10-19T04:17:41;99104.60;;;13.22
66403;BMP180;53212;52.112;5.144;2023-10-19T04:20:17;99103.00;;;13.20
66403;BMP180;53212;52.112;5.144;2023-10-19T04:22:52;99106.20;;;13.18
66403;BMP180;53212;52.112;5.144;2023-10-19T04:25:20;99102.40;;;13.10
66403;BMP180;53212;52.112;5.144;2023-10-19T04:27:47;99109.60;;;13.10
66403;BMP180;53212;52.112;5.144;2023-10-19T04:30:15;99111.00;;;13.04
66403;BMP180;53212;52.112;5.144;2023-10-19T04:32:47;99110.20;;;13.00
66403;BMP180;53212;52.112;5.144;2023-10-19T04:35:15;99108.40;;;13.00
66403;BMP180;53212;52.112;5.144;2023-10-19T04:37:48;99109.20;;;13.00
66403;BMP180;53212;52.112;5.144;2023-10-19T04:40:15;99111.60;;;13.00
66403;BMP180;53212;52.112;5.144;2023-10-19T04:42:41;99108.40;;;13.00
66403;BMP180;53212;52.112;5.144;2023-10-19T04:45:07;99107.00;;;13.00
66403;BMP180;53212;52.112;5.144;2023-10-19T04:47:33;99108.00;;;12.90
66403;BMP180;53212;52.112;5.144;2023-10-19T04:50:03;99110.60;;;12.90
66403;BMP180;53212;52.112;5.144;2023-10-19T04:52:29;99113.20;;;12.90
66403;BMP180;53212;52.112;5.144;2023-10-19T04:54:54;99112.00;;;12.90
66403;BMP180;53212;52.112;5.144;2023-10-19T04:57:20;99117.60;;;12.90
66403;BMP180;53212;52.112;5.144;2023-10-19T04:59:48;99118.60;;;12.98
66403;BMP180;53212;52.112;5.144;2023-10-19T05:02:14;99113.00;;;13.00
66403;BMP180;53212;52.112;5.144;2023-10-19T05:04:39;99114.20;;;13.00
66403;BMP180;53212;52.112;5.144;2023-10-19T05:07:07;99123.80;;;13.08
66403;BMP180;53212;52.112;5.144;2023-10-19T05:09:37;99128.00;;;13.10
66403;BMP180;53212;52.112;5.144;2023-10-19T05:12:04;99129.20;;;13.10
66403;BMP180;53212;52.112;5.144;2023-10-19T05:14:37;99127.20;;;13.20
66403;BMP180;53212;52.112;5.144;2023-10-19T05:17:03;99130.60;;;13.20
66403;BMP180;53212;52.112;5.144;2023-10-19T05:19:36;99133.40;;;13.20
66403;BMP180;53212;52.112;5.144;2023-10-19T05:22:07;99137.80;;;13.28
66403;BMP180;53212;52.112;5.144;2023-10-19T05:24:33;99140.20;;;13.30
66403;BMP180;53212;52.112;5.144;2023-10-19T05:26:58;99138.40;;;13.30
66403;BMP180;53212;52.112;5.144;2023-10-19T05:29:24;99137.80;;;13.32
66403;BMP180;53212;52.112;5.144;2023-10-19T05:31:54;99136.00;;;13.40
66403;BMP180;53212;52.112;5.144;2023-10-19T05:34:24;99139.00;;;13.40
66403;BMP180;53212;52.112;5.144;2023-10-19T05:36:52;99140.40;;;13.40
66403;BMP180;53212;52.112;5.144;2023-10-19T05:39:19;99138.60;;;13.40
66403;BMP180;53212;52.112;5.144;2023-10-19T05:41:46;99138.60;;;13.40
66403;BMP180;53212;52.112;5.144;2023-10-19T05:44:12;99144.40;;;13.40
66403;BMP180;53212;52.112;5.144;2023-10-19T05:46:37;99149.20;;;13.44
66403;BMP180;53212;52.112;5.144;2023-10-19T05:49:05;99152.20;;;13.50
66403;BMP180;53212;52.112;5.144;2023-10-19T05:51:31;99154.80;;;13.50
66403;BMP180;53212;52.112;5.144;2023-10-19T05:53:57;99150.80;;;13.50
66403;BMP180;53212;52.112;5.144;2023-10-19T05:56:30;99151.20;;;13.50
66403;BMP180;53212;52.112;5.144;2023-10-19T05:58:56;99152.00;;;13.50
66403;BMP180;53212;52.112;5.144;2023-10-19T06:01:22;99155.40;;;13.54
66403;BMP180;53212;52.112;5.144;2023-10-19T06:03:47;99161.00;;;13.56
66403;BMP180;53212;52.112;5.144;2023-10-19T06:06:13;99152.00;;;13.60
66403;BMP180;53212;52.112;5.144;2023-10-19T06:08:40;99150.40;;;13.60
66403;BMP180;53212;52.112;5.144;2023-10-19T06:11:06;99152.80;;;13.60
66403;BMP180;53212;52.112;5.144;2023-10-19T06:13:32;99149.00;;;13.60
66403;BMP180;53212;52.112;5.144;2023-10-19T06:15:57;99148.20;;;13.60
66403;BMP180;53212;52.112;5.144;2023-10-19T06:18:23;99152.60;;;13.60
66403;BMP180;53212;52.112;5.144;2023-10-19T06:20:48;99155.00;;;13.60
66403;BMP180;53212;52.112;5.144;2023-10-19T06:23:16;99158.00;;;13.60
66403;BMP180;53212;52.112;5.144;2023-10-19T06:25:43;99154.60;;;13.60
66403;BMP180;53212;52.112;5.144;2023-10-19T06:28:09;99152.20;;;13.62
66403;BMP180;53212;52.112;5.144;2023-10-19T06:30:36;99151.60;;;13.70
66403;BMP180;53212;52.112;5.144;2023-10-19T06:33:03;99149.40;;;13.70
66403;BMP180;53212;52.112;5.144;2023-10-19T06:35:30;99152.20;;;13.70
66403;BMP180;53212;52.112;5.144;2023-10-19T06:38:02;99156.60;;;13.70
66403;BMP180;53212;52.112;5.144;2023-10-19T06:40:30;99154.20;;;13.70
66403;BMP180;53212;52.112;5.144;2023-10-19T06:42:57;99155.60;;;13.70
66403;BMP180;53212;52.112;5.144;2023-10-19T06:45:24;99154.20;;;13.70
66403;BMP180;53212;52.112;5.144;2023-10-19T06:47:55;99163.40;;;13.70
66403;BMP180;53212;52.112;5.144;2023-10-19T06:50:22;99170.80;;;13.70
66403;BMP180;53212;52.112;5.144;2023-10-19T06:52:49;99176.40;;;13.70
66403;BMP180;53212;52.112;5.144;2023-10-19T06:55:17;99179.60;;;13.70
66403;BMP180;53212;52.112;5.144;2023-10-19T06:57:49;99178.80;;;13.70
66403;BMP180;53212;52.112;5.144;2023-10-19T07:00:17;99189.20;;;13.70
66403;BMP180;53212;52.112;5.144;2023-10-19T07:02:51;99187.40;;;13.80
66403;BMP180;53212;52.112;5.144;2023-10-19T07:05:18;99193.40;;;13.80
66403;BMP180;53212;52.112;5.144;2023-10-19T07:07:46;99188.00;;;13.80
66403;BMP180;53212;52.112;5.144;2023-10-19T07:10:13;99194.00;;;13.90
66403;BMP180;53212;52.112;5.144;2023-10-19T07:12:42;99195.80;;;13.90
66403;BMP180;53212;52.112;5.144;2023-10-19T07:15:09;99199.20;;;14.00
66403;BMP180;53212;52.112;5.144;2023-10-19T07:17:42;99199.00;;;14.02
66403;BMP180;53212;52.112;5.144;2023-10-19T07:20:09;99190.40;;;14.10
66403;BMP180;53212;52.112;5.144;2023-10-19T07:22:47;99197.80;;;14.10
66403;BMP180;53212;52.112;5.144;2023-10-19T07:25:13;99199.80;;;14.14
66403;BMP180;53212;52.112;5.144;2023-10-19T07:27:39;99207.00;;;14.20
66403;BMP180;53212;52.112;5.144;2023-10-19T07:30:08;99209.80;;;14.30
66403;BMP180;53212;52.112;5.144;2023-10-19T07:32:35;99207.60;;;14.30
66403;BMP180;53212;52.112;5.144;2023-10-19T07:35:01;99206.20;;;14.34
66403;BMP180;53212;52.112;5.144;2023-10-19T07:37:27;99204.80;;;14.40
66403;BMP180;53212;52.112;5.144;2023-10-19T07:39:54;99208.80;;;14.40
66403;BMP180;53212;52.112;5.144;2023-10-19T07:42:23;99209.80;;;14.44
66403;BMP180;53212;52.112;5.144;2023-10-19T07:44:48;99203.40;;;14.50
66403;BMP180;53212;52.112;5.144;2023-10-19T07:47:16;99207.60;;;14.60
66403;BMP180;53212;52.112;5.144;2023-10-19T07:49:42;99210.00;;;14.60
66403;BMP180;53212;52.112;5.144;2023-10-19T07:52:08;99212.40;;;14.64
66403;BMP180;53212;52.112;5.144;2023-10-19T07:54:37;99214.20;;;14.70
66403;BMP180;53212;52.112;5.144;2023-10-19T07:57:03;99210.40;;;14.70
66403;BMP180;53212;52.112;5.144;2023-10-19T07:59:35;99204.60;;;14.78
66403;BMP180;53212;52.112;5.144;2023-10-19T08:02:01;99209.00;;;14.80
66403;BMP180;53212;52.112;5.144;2023-10-19T08:04:30;99203.00;;;14.80
66403;BMP180;53212;52.112;5.144;2023-10-19T08:06:57;99206.40;;;14.80
66403;BMP180;53212;52.112;5.144;2023-10-19T08:09:23;99205.40;;;14.86
66403;BMP180;53212;52.112;5.144;2023-10-19T08:11:50;99202.20;;;14.90
66403;BMP180;53212;52.112;5.144;2023-10-19T08:14:22;99202.80;;;14.90
66403;BMP180;53212;52.112;5.144;2023-10-19T08:16:47;99202.00;;;14.90
66403;BMP180;53212;52.112;5.144;2023-10-19T08:19:13;99199.60;;;15.00
66403;BMP180;53212;52.112;5.144;2023-10-19T08:21:38;99199.40;;;15.00
66403;BMP180;53212;52.112;5.144;2023-10-19T08:24:04;99203.80;;;15.00
66403;BMP180;53212;52.112;5.144;2023-10-19T08:26:31;99207.40;;;15.10
66403;BMP180;53212;52.112;5.144;2023-10-19T08:28:56;99211.80;;;15.20
66403;BMP180;53212;52.112;5.144;2023-10-19T08:31:29;99209.80;;;15.20
66403;BMP180;53212;52.112;5.144;2023-10-19T08:33:56;99202.40;;;15.20
66403;BMP180;53212;52.112;5.144;2023-10-19T08:36:22;99203.40;;;15.20
66403;BMP180;53212;52.112;5.144;2023-10-19T08:38:47;99194.20;;;15.20
66403;BMP180;53212;52.112;5.144;2023-10-19T08:41:15;99196.60;;;15.30
66403;BMP180;53212;52.112;5.144;2023-10-19T08:43:41;99192.20;;;15.38
66403;BMP180;53212;52.112;5.144;2023-10-19T08:46:06;99193.20;;;15.40
66403;BMP180;53212;52.112;5.144;2023-10-19T08:48:36;99189.80;;;15.50
66403;BMP180;53212;52.112;5.144;2023-10-19T08:51:08;99193.80;;;15.60
66403;BMP180;53212;52.112;5.144;2023-10-19T08:53:37;99194.00;;;15.78
66403;BMP180;53212;52.112;5.144;2023-10-19T08:56:08;99192.80;;;15.90
66403;BMP180;53212;52.112;5.144;2023-10-19T08:58:37;99188.60;;;16.00
66403;BMP180;53212;52.112;5.144;2023-10-19T09:01:02;99195.80;;;16.10
66403;BMP180;53212;52.112;5.144;2023-10-19T09:03:35;99189.20;;;16.20
66403;BMP180;53212;52.112;5.144;2023-10-19T09:06:05;99181.20;;;16.38
66403;BMP180;53212;52.112;5.144;2023-10-19T09:08:31;99185.20;;;16.42
66403;BMP180;53212;52.112;5.144;2023-10-19T09:11:10;99191.40;;;16.60
66403;BMP180;53212;52.112;5.144;2023-10-19T09:13:50;99191.20;;;16.60
66403;BMP180;53212;52.112;5.144;2023-10-19T09:16:20;99190.80;;;16.70
66403;BMP180;53212;52.112;5.144;2023-10-19T09:18:51;99184.80;;;16.80
66403;BMP180;53212;52.112;5.144;2023-10-19T09:21:20;99185.80;;;16.80
66403;BMP180;53212;52.112;5.144;2023-10-19T09:23:56;99185.00;;;16.90
66403;BMP180;53212;52.112;5.144;2023-10-19T09:26:23;99183.60;;;16.88
66403;BMP180;53212;52.112;5.144;2023-10-19T09:28:52;99188.00;;;16.80
66403;BMP180;53212;52.112;5.144;2023-10-19T09:31:20;99182.80;;;16.80
66403;BMP180;53212;52.112;5.144;2023-10-19T09:33:47;99183.80;;;16.78
66403;BMP180;53212;52.112;5.144;2023-10-19T09:36:14;99184.40;;;16.90
66403;BMP180;53212;52.112;5.144;2023-10-19T09:38:48;99184.80;;;17.00
66403;BMP180;53212;52.112;5.144;2023-10-19T09:41:22;99176.20;;;17.20
66403;BMP180;53212;52.112;5.144;2023-10-19T09:43:50;99175.60;;;17.30
66403;BMP180;53212;52.112;5.144;2023-10-19T09:46:27;99173.80;;;17.34
66403;BMP180;53212;52.112;5.144;2023-10-19T09:48:54;99173.60;;;17.34
66403;BMP180;53212;52.112;5.144;2023-10-19T09:51:21;99167.40;;;17.40
66403;BMP180;53212;52.112;5.144;2023-10-19T09:54:48;99163.60;;;17.50
66403;BMP180;53212;52.112;5.144;2023-10-19T09:57:13;99155.20;;;17.50
66403;BMP180;53212;52.112;5.144;2023-10-19T09:59:45;99156.60;;;17.60
66403;BMP180;53212;52.112;5.144;2023-10-19T10:02:15;99166.20;;;17.60
66403;BMP180;53212;52.112;5.144;2023-10-19T10:04:43;99167.80;;;17.56
66403;BMP180;53212;52.112;5.144;2023-10-19T10:07:13;99167.40;;;17.50
66403;BMP180;53212;52.112;5.144;2023-10-19T10:09:40;99165.60;;;17.50
66403;BMP180;53212;52.112;5.144;2023-10-19T10:15:06;99163.80;;;17.60
66403;BMP180;53212;52.112;5.144;2023-10-19T10:17:49;99170.60;;;17.60
66403;BMP180;53212;52.112;5.144;2023-10-19T10:23:15;99166.20;;;17.80
66403;BMP180;53212;52.112;5.144;2023-10-19T10:25:41;99162.80;;;17.86
66403;BMP180;53212;52.112;5.144;2023-10-19T10:28:06;99159.60;;;17.90
66403;BMP180;53212;52.112;5.144;2023-10-19T10:31:19;99149.40;;;17.98
66403;BMP180;53212;52.112;5.144;2023-10-19T10:33:50;99144.40;;;17.90
66403;BMP180;53212;52.112;5.144;2023-10-19T10:36:18;99144.00;;;17.90
66403;BMP180;53212;52.112;5.144;2023-10-19T10:38:46;99149.40;;;17.90
66403;BMP180;53212;52.112;5.144;2023-10-19T10:41:12;99147.80;;;17.90
66403;BMP180;53212;52.112;5.144;2023-10-19T10:43:57;99142.60;;;18.00
66403;BMP180;53212;52.112;5.144;2023-10-19T10:46:25;99141.80;;;18.00
66403;BMP180;53212;52.112;5.144;2023-10-19T10:48:53;99147.60;;;18.10
66403;BMP180;53212;52.112;5.144;2023-10-19T10:51:28;99150.20;;;18.10
66403;BMP180;53212;52.112;5.144;2023-10-19T10:53:57;99141.20;;;18.10
66403;BMP180;53212;52.112;5.144;2023-10-19T10:56:24;99138.00;;;18.10
66403;BMP180;53212;52.112;5.144;2023-10-19T10:58:49;99140.80;;;18.20
66403;BMP180;53212;52.112;5.144;2023-10-19T11:01:27;99138.20;;;18.38
66403;BMP180;53212;52.112;5.144;2023-10-19T11:04:09;99139.60;;;18.54
66403;BMP180;53212;52.112;5.144;2023-10-19T11:06:53;99136.60;;;18.90
66403;BMP180;53212;52.112;5.144;2023-10-19T11:09:20;99131.60;;;19.06
66403;BMP180;53212;52.112;5.144;2023-10-19T11:11:49;99117.80;;;19.20
66403;BMP180;53212;52.112;5.144;2023-10-19T11:14:17;99120.00;;;19.40
66403;BMP180;53212;52.112;5.144;2023-10-19T11:16:43;99129.80;;;19.50
66403;BMP180;53212;52.112;5.144;2023-10-19T11:19:08;99128.00;;;19.60
66403;BMP180;53212;52.112;5.144;2023-10-19T11:21:35;99121.00;;;19.60
66403;BMP180;53212;52.112;5.144;2023-10-19T11:24:01;99126.20;;;19.70
66403;BMP180;53212;52.112;5.144;2023-10-19T11:26:27;99126.00;;;19.64
66403;BMP180;53212;52.112;5.144;2023-10-19T11:29:00;99128.60;;;19.50
66403;BMP180;53212;52.112;5.144;2023-10-19T11:31:35;99131.40;;;19.40
66403;BMP180;53212;52.112;5.144;2023-10-19T11:34:05;99137.40;;;19.40
66403;BMP180;53212;52.112;5.144;2023-10-19T11:36:30;99140.40;;;19.36
66403;BMP180;53212;52.112;5.144;2023-10-19T11:38:56;99134.20;;;19.40
66403;BMP180;53212;52.112;5.144;2023-10-19T11:41:22;99126.00;;;19.40
66403;BMP180;53212;52.112;5.144;2023-10-19T11:43:49;99123.40;;;19.40
66403;BMP180;53212;52.112;5.144;2023-10-19T11:46:16;99124.80;;;19.40
66403;BMP180;53212;52.112;5.144;2023-10-19T11:48:50;99113.80;;;19.40
66403;BMP180;53212;52.112;5.144;2023-10-19T11:51:16;99109.80;;;19.40
66403;BMP180;53212;52.112;5.144;2023-10-19T11:53:42;99101.00;;;19.40
66403;BMP180;53212;52.112;5.144;2023-10-19T11:56:17;99099.40;;;19.40
66403;BMP180;53212;52.112;5.144;2023-10-19T11:58:42;99092.80;;;19.30
66403;BMP180;53212;52.112;5.144;2023-10-19T12:01:10;99092.40;;;19.30
66403;BMP180;53212;52.112;5.144;2023-10-19T12:03:42;99097.40;;;19.40
66403;BMP180;53212;52.112;5.144;2023-10-19T12:06:12;99099.60;;;19.40
66403;BMP180;53212;52.112;5.144;2023-10-19T12:08:39;99100.20;;;19.40
66403;BMP180;53212;52.112;5.144;2023-10-19T12:11:07;99094.60;;;19.40
66403;BMP180;53212;52.112;5.144;2023-10-19T12:13:44;99090.80;;;19.30
66403;BMP180;53212;52.112;5.144;2023-10-19T12:16:14;99088.80;;;19.30
66403;BMP180;53212;52.112;5.144;2023-10-19T12:18:43;99086.00;;;19.24
66403;BMP180;53212;52.112;5.144;2023-10-19T12:21:10;99085.60;;;19.20
66403;BMP180;53212;52.112;5.144;2023-10-19T12:23:43;99085.20;;;19.10
66403;BMP180;53212;52.112;5.144;2023-10-19T12:26:09;99080.60;;;18.92
66403;BMP180;53212;52.112;5.144;2023-10-19T12:28:38;99082.40;;;18.80
66403;BMP180;53212;52.112;5.144;2023-10-19T12:31:05;99079.00;;;18.70
66403;BMP180;53212;52.112;5.144;2023-10-19T12:33:39;99079.80;;;18.74
66403;BMP180;53212;52.112;5.144;2023-10-19T12:36:07;99077.60;;;18.72
66403;BMP180;53212;52.112;5.144;2023-10-19T12:38:52;99075.00;;;18.80
66403;BMP180;53212;52.112;5.144;2023-10-19T12:41:21;99072.00;;;18.80
66403;BMP180;53212;52.112;5.144;2023-10-19T12:43:47;99066.80;;;18.80
66403;BMP180;53212;52.112;5.144;2023-10-19T12:46:15;99069.40;;;18.80
66403;BMP180;53212;52.112;5.144;2023-10-19T12:48:42;99068.80;;;18.70
66403;BMP180;53212;52.112;5.144;2023-10-19T12:51:08;99072.40;;;18.60
66403;BMP180;53212;52.112;5.144;2023-10-19T12:53:39;99069.60;;;18.50
66403;BMP180;53212;52.112;5.144;2023-10-19T12:56:05;99064.20;;;18.40
66403;BMP180;53212;52.112;5.144;2023-10-19T12:58:33;99065.40;;;18.40
66403;BMP180;53212;52.112;5.144;2023-10-19T13:00:58;99066.80;;;18.40
66403;BMP180;53212;52.112;5.144;2023-10-19T13:03:24;99060.20;;;18.30
66403;BMP180;53212;52.112;5.144;2023-10-19T13:05:56;99056.60;;;18.30
66403;BMP180;53212;52.112;5.144;2023-10-19T13:08:23;99062.80;;;18.30
66403;BMP180;53212;52.112;5.144;2023-10-19T13:10:53;99066.60;;;18.20
66403;BMP180;53212;52.112;5.144;2023-10-19T13:13:19;99064.60;;;18.10
66403;BMP180;53212;52.112;5.144;2023-10-19T13:15:48;99057.00;;;18.00
66403;BMP180;53212;52.112;5.144;2023-10-19T13:18:13;99068.40;;;17.90
66403;BMP180;53212;52.112;5.144;2023-10-19T13:20:46;99062.80;;;17.84
66403;BMP180;53212;52.112;5.144;2023-10-19T13:23:11;99060.40;;;17.80
66403;BMP180;53212;52.112;5.144;2023-10-19T13:25:39;99057.60;;;17.70
66403;BMP180;53212;52.112;5.144;2023-10-19T13:28:09;99061.60;;;17.70
66403;BMP180;53212;52.112;5.144;2023-10-19T13:33:06;99059.40;;;17.60
66403;BMP180;53212;52.112;5.144;2023-10-19T13:35:36;99058.00;;;17.60
66403;BMP180;53212;52.112;5.144;2023-10-19T13:38:03;99053.20;;;17.50
66403;BMP180;53212;52.112;5.144;2023-10-19T13:40:29;99047.40;;;17.50
66403;BMP180;53212;52.112;5.144;2023-10-19T13:42:58;99044.00;;;17.50
66403;BMP180;53212;52.112;5.144;2023-10-19T13:45:24;99041.40;;;17.60
66403;BMP180;53212;52.112;5.144;2023-10-19T13:47:50;99034.80;;;17.70
66403;BMP180;53212;52.112;5.144;2023-10-19T13:50:22;99037.00;;;17.70
66403;BMP180;53212;52.112;5.144;2023-10-19T13:52:50;99041.00;;;17.70
66403;BMP180;53212;52.112;5.144;2023-10-19T13:55:17;99041.40;;;17.70
66403;BMP180;53212;52.112;5.144;2023-10-19T13:57:45;99042.20;;;17.70
66403;BMP180;53212;52.112;5.144;2023-10-19T14:00:13;99037.00;;;17.80
66403;BMP180;53212;52.112;5.144;2023-10-19T14:02:46;99030.60;;;17.90
66403;BMP180;53212;52.112;5.144;2023-10-19T14:05:12;99029.40;;;18.00
66403;BMP180;53212;52.112;5.144;2023-10-19T14:07:38;99028.60;;;18.02
66403;BMP180;53212;52.112;5.144;2023-10-19T14:10:09;99030.00;;;18.00
66403;BMP180;53212;52.112;5.144;2023-10-19T14:12:42;99020.60;;;18.00
66403;BMP180;53212;52.112;5.144;2023-10-19T14:15:16;99015.20;;;18.00
66403;BMP180;53212;52.112;5.144;2023-10-19T14:17:47;99010.40;;;17.90
66403;BMP180;53212;52.112;5.144;2023-10-19T14:20:15;99015.20;;;17.80
66403;BMP180;53212;52.112;5.144;2023-10-19T14:22:42;99015.00;;;17.74
66403;BMP180;53212;52.112;5.144;2023-10-19T14:25:14;99010.80;;;17.70
66403;BMP180;53212;52.112;5.144;2023-10-19T14:27:47;99004.80;;;17.60
66403;BMP180;53212;52.112;5.144;2023-10-19T14:30:15;99002.80;;;17.50